Presented by SoCal Endurance.

Register

Online Registration Deadline: Thursday, Jan 23, 2020 at 11:59 PM PT

Select Your Category

Category Start Time Fee
1 - 12 HR SOLO OPEN/ELITE MEN $100 9:00 AM $100
2 - 12 HR SOLO OPEN/ELITE WOMEN $100 9:00 AM $100
3 - 12 HR SOLO MASTER 30-39 $100 9:00 AM $100
4 - 12 HR SOLO MASTER 40-49 $100 9:00 AM $100
5 - 12 HR SOLO MASTER 50-59 $100 9:00 AM $100
6 - 12 HR SOLO MASTER 60+ $100 9:00 AM $100
7 - 12 HR SOLO SPORT MEN $100 9:00 AM $100
8 - 12 HR SOLO SPORT WOMEN $100 9:00 AM $100
9 - 12 HR SOLO BEGINNER MEN $100 9:00 AM $100
10 - 12 HR SOLO BEGINNER WOMEN $100 9:00 AM $100
11 - 12 HR SOLO JR 12-15 $100 9:00 AM $100
12 - 12 HR SOLO JR 16-18 $100 9:00 AM $100
13 - 12 HR SOLO SINGLESPEED OPEN $100 9:00 AM $100
14 - 12 HR SOLO CLYDESDALES 200LB $100 9:00 AM $100
15 - 12 HR 2 PERSON OPEN $170 9:00 AM $170
16 - 12 HR 2 PERSON COED $170 9:00 AM $170
17 - 12 HR 2 PERSON SINGLESPEED OPEN $170 9:00 AM $170
18 - 12 HR 3 PERSON OPEN $240 9:00 AM $240
19 - 12 HR 4 PERSON OPEN $320 9:00 AM $320
20 - 12 HR 4 PERSON SALTY DOG (COMBINED 200 AGE) $320 9:00 AM $320
21 - 12 HR 4 PERSON LADIES $320 9:00 AM $320
22 - 12 HR 4 PERSON JR OPEN 17-18 $320 9:00 AM $320
38 - 12 HR 5 PERSON OPEN $420 9:00 AM $420
24 - 6 HR OPEN/ELITE MEN $70 9:00 AM $70
25 - 6 HR OPEN/ELITE WOMEN $70 9:00 AM $70
26 - 6 HR MASTER MEN 30-39 $70 9:00 AM $70
27 - 6 HR MASTER MEN 40-49 $70 9:00 AM $70
28 - 6 HR MASTER MEN 50+ $70 9:00 AM $70
41 - 6 HR SOLO MASTERS OPEN 60+ $70 9:00 AM $70
29 - 6 HR MASTER WOMEN 30-39 $70 9:00 AM $70
30 - 6 HR MASTER WOMEN 40-49 $70 9:00 AM $70
31 - 6 HOUR MASTER WOMEN 50+ $70 9:00 AM $70
32 - 6 HR SOLO JR 12-15 $70 9:00 AM $70
40 - 6 HR SOLO JR 16-18 $70 9:00 AM $70
33 - 6 HR SOLO SINGLESPEED OPEN $70 9:00 AM $70
39 - 6 HOUR SOLO CLYDESDALE 200+ Lbs $70 9:00 AM $70
  • You must weigh 200 Pounds +
34 - 6 HR 2 PERSON LADIES $130 9:00 AM $130
35 - 6 HR 2 PERSON OPEN $130 9:00 AM $130
37 - 6 HR 2 PERSON JR 12-18 $130 9:00 AM $130
SOLO TRUE BEGINNER ( 1 LAP ) $30 9:00 AM $30
  • This is a 1 Lap taste of what endurance racing is all about. You will take off at the same time as all other categories and complete 1 lap of the race course. There is no Awards for this category!

Other Events from this Director

 

SoCal Vender Fees

Temecula, CA
December 31, 2019

BikeReg is the premier online event registration service for cycling events.

  • Created and run by bike racers and event directors
  • Easy, customizable, full-featured event management interface
  • Registration, Results and Fundraising solutions all in one place
  • Founded in 1999 - Two decades of experience streamlining the registration process

Learn more about the BikeReg Advantage

Register with